createdAt,value
2019-05-19T00:01:54.079Z,14.51
2019-05-19T00:04:58.916Z,14.50
2019-05-19T00:08:03.806Z,14.43
2019-05-19T00:11:08.724Z,14.43
2019-05-19T00:14:13.480Z,14.54
2019-05-19T00:17:18.231Z,14.59
2019-05-19T00:20:22.988Z,14.60
2019-05-19T00:23:27.791Z,14.60
2019-05-19T00:26:32.545Z,14.59
2019-05-19T00:29:37.634Z,14.52
2019-05-19T00:32:43.598Z,14.49
2019-05-19T00:35:48.346Z,14.48
2019-05-19T00:38:53.100Z,14.47
2019-05-19T00:41:57.929Z,14.47
2019-05-19T00:45:03.003Z,14.42
2019-05-19T00:48:08.364Z,14.39
2019-05-19T00:51:13.790Z,14.35
2019-05-19T00:54:18.536Z,14.39
2019-05-19T00:57:24.409Z,14.42
2019-05-19T01:00:29.258Z,14.50
2019-05-19T01:03:34.292Z,14.44
2019-05-19T01:06:39.355Z,14.19
2019-05-19T01:09:45.234Z,13.98
2019-05-19T01:12:50.016Z,13.95
2019-05-19T01:15:54.779Z,13.76
2019-05-19T01:18:59.508Z,13.68
2019-05-19T01:22:04.635Z,13.66
2019-05-19T01:25:09.965Z,13.78
2019-05-19T01:28:14.808Z,13.87
2019-05-19T01:31:19.866Z,13.95
2019-05-19T01:34:24.678Z,13.93
2019-05-19T01:37:30.427Z,13.82
2019-05-19T01:40:35.174Z,13.91
2019-05-19T01:43:40.257Z,13.79
2019-05-19T01:46:45.016Z,13.79
2019-05-19T01:49:50.083Z,13.80
2019-05-19T01:52:55.484Z,13.79
2019-05-19T01:56:00.246Z,13.82
2019-05-19T01:59:05.476Z,13.80
2019-05-19T02:02:10.589Z,13.81
2019-05-19T02:05:15.852Z,13.83
2019-05-19T02:08:20.779Z,13.83
2019-05-19T02:11:26.103Z,13.88
2019-05-19T02:14:31.107Z,13.89
2019-05-19T02:17:36.622Z,13.90
2019-05-19T02:20:41.371Z,13.93
2019-05-19T02:23:46.105Z,13.96
2019-05-19T02:26:50.840Z,14.01
2019-05-19T02:29:55.913Z,14.03
2019-05-19T02:33:00.993Z,14.00
2019-05-19T02:36:06.284Z,14.02
2019-05-19T02:39:11.370Z,14.02
2019-05-19T02:42:18.721Z,14.02
2019-05-19T02:45:26.636Z,14.01
2019-05-19T02:48:33.467Z,13.97
2019-05-19T02:51:40.841Z,14.01
2019-05-19T02:54:46.602Z,14.03
2019-05-19T02:57:51.695Z,13.98
2019-05-19T03:00:56.441Z,13.95
2019-05-19T03:04:02.192Z,13.94
2019-05-19T03:07:07.498Z,13.98
2019-05-19T03:10:12.719Z,13.96
2019-05-19T03:13:17.466Z,13.81
2019-05-19T03:16:22.209Z,13.81
2019-05-19T03:19:26.967Z,13.85
2019-05-19T03:22:31.767Z,13.93
2019-05-19T03:25:36.653Z,13.99
2019-05-19T03:28:41.939Z,13.98
2019-05-19T03:32:03.064Z,13.85
2019-05-19T03:35:08.040Z,13.81
2019-05-19T03:38:12.988Z,13.92
2019-05-19T03:41:17.741Z,13.95
2019-05-19T03:44:25.971Z,14.06
2019-05-19T03:47:30.717Z,13.98
2019-05-19T03:50:35.479Z,14.00
2019-05-19T03:53:40.246Z,14.06
2019-05-19T03:56:45.012Z,14.13
2019-05-19T03:59:49.754Z,13.96
2019-05-19T04:02:54.521Z,13.95
2019-05-19T04:05:59.882Z,14.01
2019-05-19T04:09:06.129Z,14.10
2019-05-19T04:12:11.204Z,14.11
2019-05-19T04:15:16.628Z,14.10
2019-05-19T04:18:21.379Z,14.10
2019-05-19T04:21:26.126Z,14.00
2019-05-19T04:24:31.270Z,13.97
2019-05-19T04:27:36.419Z,14.00
2019-05-19T04:30:42.070Z,14.01
2019-05-19T04:33:47.138Z,14.03
2019-05-19T04:36:52.040Z,14.07
2019-05-19T04:39:57.150Z,14.12
2019-05-19T04:43:01.976Z,14.12
2019-05-19T04:46:06.713Z,14.16
2019-05-19T04:49:11.876Z,14.11
2019-05-19T04:52:16.732Z,13.94
2019-05-19T04:55:21.817Z,13.93
2019-05-19T04:58:26.901Z,14.03
2019-05-19T05:01:32.077Z,14.08
2019-05-19T05:04:36.854Z,14.08
2019-05-19T05:07:42.136Z,13.97
2019-05-19T05:10:47.884Z,13.95
2019-05-19T05:13:53.006Z,13.96
2019-05-19T05:16:57.955Z,13.93
2019-05-19T05:20:03.221Z,13.92
2019-05-19T05:23:08.013Z,13.92
2019-05-19T05:26:13.761Z,14.01
2019-05-19T05:29:18.879Z,14.13
2019-05-19T05:32:23.757Z,14.16
2019-05-19T05:35:28.834Z,14.06
2019-05-19T05:38:33.955Z,14.06
2019-05-19T05:41:38.793Z,13.96
2019-05-19T05:44:43.606Z,13.90
2019-05-19T05:47:48.407Z,13.83
2019-05-19T05:50:53.635Z,13.92
2019-05-19T05:53:58.403Z,13.94
2019-05-19T05:57:03.284Z,13.98
2019-05-19T06:00:08.335Z,14.02
2019-05-19T06:03:13.114Z,14.15
2019-05-19T06:06:17.975Z,14.45
2019-05-19T06:09:23.043Z,14.64
2019-05-19T06:12:29.321Z,14.76
2019-05-19T06:15:34.186Z,14.93
2019-05-19T06:18:38.992Z,15.08
2019-05-19T06:21:43.971Z,15.17
2019-05-19T06:24:48.792Z,15.01
2019-05-19T06:27:53.870Z,14.99
2019-05-19T06:31:01.868Z,15.07
2019-05-19T06:34:07.390Z,15.04
2019-05-19T06:37:12.276Z,14.97
2019-05-19T06:40:17.486Z,15.03
2019-05-19T06:43:23.150Z,15.09
2019-05-19T06:46:27.936Z,15.14
2019-05-19T06:49:32.987Z,15.04
2019-05-19T06:52:37.767Z,15.11
2019-05-19T06:55:43.137Z,15.14
2019-05-19T06:58:47.943Z,15.10
2019-05-19T07:01:52.911Z,15.16
2019-05-19T07:04:58.271Z,15.21
2019-05-19T07:08:03.711Z,15.41
2019-05-19T07:11:08.544Z,15.47
2019-05-19T07:14:13.666Z,15.64
2019-05-19T07:17:18.616Z,15.86
2019-05-19T07:20:23.479Z,16.11
2019-05-19T07:23:29.063Z,16.27
2019-05-19T07:26:34.319Z,16.38
2019-05-19T07:29:40.232Z,16.17
2019-05-19T07:32:46.550Z,16.25
2019-05-19T07:35:51.394Z,16.12
2019-05-19T07:38:56.552Z,16.34
2019-05-19T07:42:01.720Z,16.34
2019-05-19T07:45:08.020Z,16.84
2019-05-19T07:48:12.788Z,16.84
2019-05-19T07:51:17.995Z,16.85
2019-05-19T07:54:23.141Z,17.00
2019-05-19T07:57:28.445Z,17.16
2019-05-19T08:00:33.593Z,17.16
2019-05-19T08:03:38.349Z,17.18
2019-05-19T08:06:43.117Z,17.25
2019-05-19T08:09:50.190Z,17.24
2019-05-19T08:12:55.696Z,17.38
2019-05-19T08:16:00.795Z,17.71
2019-05-19T08:19:06.031Z,17.68
2019-05-19T08:22:11.315Z,17.73
2019-05-19T08:25:16.173Z,17.88
2019-05-19T08:28:22.121Z,18.17
2019-05-19T08:31:27.777Z,18.28
2019-05-19T08:34:32.542Z,18.27
2019-05-19T08:37:37.403Z,18.26
2019-05-19T08:40:42.531Z,18.45
2019-05-19T08:43:47.976Z,18.63
2019-05-19T08:46:53.788Z,18.54
2019-05-19T08:49:58.921Z,18.77
2019-05-19T08:53:03.774Z,18.83
2019-05-19T08:56:08.840Z,18.89
2019-05-19T08:59:13.653Z,18.80
2019-05-19T09:02:18.513Z,19.03
2019-05-19T09:05:24.047Z,18.84
2019-05-19T09:08:29.321Z,18.83
2019-05-19T09:11:34.172Z,18.84
2019-05-19T09:14:39.024Z,18.68
2019-05-19T09:17:43.752Z,19.24
2019-05-19T09:20:48.512Z,19.51
2019-05-19T09:23:53.350Z,19.20
2019-05-19T09:26:58.156Z,18.79
2019-05-19T09:30:03.028Z,18.90
2019-05-19T09:33:07.950Z,18.84
2019-05-19T09:36:13.486Z,18.97
2019-05-19T09:39:18.517Z,19.36
2019-05-19T09:42:24.797Z,19.74
2019-05-19T09:45:29.758Z,19.89
2019-05-19T09:48:34.566Z,19.63
2019-05-19T09:51:39.529Z,19.80
2019-05-19T09:54:45.918Z,19.62
2019-05-19T09:57:51.131Z,19.90
2019-05-19T10:00:56.277Z,20.19
2019-05-19T10:04:01.339Z,20.24
2019-05-19T10:07:07.220Z,19.98
2019-05-19T10:10:16.069Z,19.93
2019-05-19T10:13:20.880Z,20.07
2019-05-19T10:16:26.009Z,20.06
2019-05-19T10:19:30.928Z,19.96
2019-05-19T10:22:35.720Z,20.45
2019-05-19T10:25:40.644Z,20.80
2019-05-19T10:28:45.567Z,20.88
2019-05-19T10:31:54.293Z,20.45
2019-05-19T10:34:57.085Z,20.38
2019-05-19T10:38:01.940Z,20.67
2019-05-19T10:41:06.889Z,20.73
2019-05-19T10:44:11.752Z,20.97
2019-05-19T10:47:16.997Z,21.06
2019-05-19T10:50:21.802Z,21.25
2019-05-19T10:53:26.749Z,21.38
2019-05-19T10:56:31.970Z,21.57
2019-05-19T10:59:36.862Z,21.46
2019-05-19T11:02:41.650Z,21.36
2019-05-19T11:05:46.712Z,21.42
2019-05-19T11:08:51.512Z,21.32
2019-05-19T11:11:56.675Z,21.10
2019-05-19T11:15:01.811Z,20.99
2019-05-19T11:18:08.094Z,20.71
2019-05-19T11:21:13.242Z,20.76
2019-05-19T11:24:18.269Z,20.75
2019-05-19T11:27:23.314Z,20.84
2019-05-19T11:30:28.118Z,20.70
2019-05-19T11:33:32.931Z,20.87
2019-05-19T11:36:38.078Z,20.97
2019-05-19T11:39:42.904Z,21.12
2019-05-19T11:42:48.187Z,21.35
2019-05-19T11:45:53.288Z,22.02
2019-05-19T11:48:58.653Z,22.55
2019-05-19T11:52:03.494Z,22.76
2019-05-19T11:55:08.838Z,22.92
2019-05-19T11:58:14.201Z,22.93
2019-05-19T12:01:19.315Z,22.47
2019-05-19T12:04:24.501Z,22.05
2019-05-19T12:07:29.789Z,21.69
2019-05-19T12:10:34.722Z,21.67
2019-05-19T12:13:39.449Z,22.03
2019-05-19T12:16:44.404Z,22.50
2019-05-19T12:19:49.486Z,22.64
2019-05-19T12:22:54.321Z,23.01
2019-05-19T12:25:59.331Z,23.12
2019-05-19T12:29:04.194Z,22.59
2019-05-19T12:32:08.972Z,22.29
2019-05-19T12:35:14.140Z,22.34
2019-05-19T12:38:19.277Z,22.28
2019-05-19T12:41:24.365Z,22.41
2019-05-19T12:44:29.108Z,22.64
2019-05-19T12:47:34.123Z,23.16
2019-05-19T12:50:38.939Z,22.96
2019-05-19T12:53:43.923Z,22.51
2019-05-19T12:56:48.737Z,22.31
2019-05-19T12:59:53.576Z,22.22
2019-05-19T13:02:59.324Z,22.56
2019-05-19T13:06:04.231Z,22.86
2019-05-19T13:09:09.588Z,23.33
2019-05-19T13:12:14.433Z,23.28
2019-05-19T13:15:19.620Z,23.08
2019-05-19T13:18:24.681Z,22.51
2019-05-19T13:21:29.806Z,22.51
2019-05-19T13:24:34.948Z,22.44
2019-05-19T13:27:41.036Z,22.70
2019-05-19T13:30:45.783Z,23.27
2019-05-19T13:33:51.843Z,23.66
2019-05-19T13:36:56.918Z,23.46
2019-05-19T13:40:02.287Z,22.88
2019-05-19T13:43:07.436Z,22.80
2019-05-19T13:46:12.331Z,23.43
2019-05-19T13:49:17.210Z,23.97
2019-05-19T13:52:22.046Z,24.00
2019-05-19T13:55:26.900Z,23.45
2019-05-19T13:58:31.979Z,23.16
2019-05-19T14:01:37.222Z,23.10
2019-05-19T14:04:42.392Z,23.20
2019-05-19T14:07:47.239Z,23.56
2019-05-19T14:10:52.274Z,23.79
2019-05-19T14:13:57.134Z,24.39
2019-05-19T14:17:01.962Z,24.38
2019-05-19T14:20:08.108Z,23.83
2019-05-19T14:23:13.146Z,24.13
2019-05-19T14:26:18.591Z,24.01
2019-05-19T14:29:23.425Z,23.56
2019-05-19T14:32:28.644Z,23.34
2019-05-19T14:35:33.902Z,23.39
2019-05-19T14:38:40.747Z,23.27
2019-05-19T14:41:50.265Z,23.09
2019-05-19T14:44:55.802Z,23.55
2019-05-19T14:48:00.637Z,24.03
2019-05-19T14:51:05.394Z,24.01
2019-05-19T14:54:10.211Z,23.94
2019-05-19T14:57:14.965Z,24.00
2019-05-19T15:00:20.728Z,24.71
2019-05-19T15:03:25.813Z,24.95
2019-05-19T15:06:30.597Z,24.60
2019-05-19T15:09:35.655Z,24.40
2019-05-19T15:12:40.411Z,24.06
2019-05-19T15:15:45.730Z,23.83
2019-05-19T15:18:50.699Z,23.52
2019-05-19T15:21:56.722Z,23.43
2019-05-19T15:25:01.927Z,23.39
2019-05-19T15:28:06.862Z,23.28
2019-05-19T15:31:11.679Z,23.21
2019-05-19T15:34:16.425Z,23.10
2019-05-19T15:37:22.470Z,23.16
2019-05-19T15:40:27.433Z,23.17
2019-05-19T15:43:32.496Z,23.39
2019-05-19T15:46:37.584Z,23.77
2019-05-19T15:49:42.426Z,23.68
2019-05-19T15:52:47.338Z,23.91
2019-05-19T15:55:52.098Z,24.59
2019-05-19T15:58:57.398Z,25.18
2019-05-19T16:02:02.508Z,25.12
2019-05-19T16:05:08.231Z,24.90
2019-05-19T16:08:12.953Z,25.07
2019-05-19T16:11:17.874Z,25.21
2019-05-19T16:14:22.683Z,25.76
2019-05-19T16:17:27.397Z,26.14
2019-05-19T16:20:32.356Z,25.86
2019-05-19T16:23:37.116Z,25.59
2019-05-19T16:26:41.860Z,25.90
2019-05-19T16:29:46.562Z,25.80
2019-05-19T16:32:51.542Z,25.89
2019-05-19T16:35:56.484Z,26.03
2019-05-19T16:39:01.225Z,26.06
2019-05-19T16:42:07.631Z,25.72
2019-05-19T16:45:12.983Z,25.44
2019-05-19T16:48:18.024Z,25.20
2019-05-19T16:51:23.343Z,25.46
2019-05-19T16:54:32.885Z,25.33
2019-05-19T16:57:37.715Z,25.52
2019-05-19T17:00:42.429Z,25.47
2019-05-19T17:03:47.391Z,25.29
2019-05-19T17:06:52.379Z,25.26
2019-05-19T17:09:57.089Z,25.09
2019-05-19T17:13:02.231Z,25.02
2019-05-19T17:16:07.165Z,24.73
2019-05-19T17:19:11.901Z,24.48
2019-05-19T17:22:16.603Z,24.37
2019-05-19T17:25:21.556Z,24.54
2019-05-19T17:28:26.272Z,24.51
2019-05-19T17:31:31.133Z,24.26
2019-05-19T17:34:36.185Z,24.29
2019-05-19T17:37:41.536Z,24.34
2019-05-19T17:40:46.329Z,24.31
2019-05-19T17:43:51.166Z,24.44
2019-05-19T17:46:56.155Z,24.39
2019-05-19T17:50:00.875Z,24.26
2019-05-19T17:53:06.334Z,24.21
2019-05-19T17:56:11.357Z,24.24
2019-05-19T17:59:17.020Z,24.19
2019-05-19T18:02:21.775Z,24.04
2019-05-19T18:05:27.585Z,23.77
2019-05-19T18:08:32.387Z,23.63
2019-05-19T18:11:37.152Z,23.52
2019-05-19T18:14:42.033Z,23.61
2019-05-19T18:17:47.056Z,23.37
2019-05-19T18:20:53.364Z,23.20
2019-05-19T18:27:05.612Z,22.78
2019-05-19T18:30:10.832Z,22.78
2019-05-19T18:33:15.555Z,22.61
2019-05-19T18:36:20.341Z,22.58
2019-05-19T18:39:25.318Z,22.60
2019-05-19T18:42:30.115Z,22.54
2019-05-19T18:45:34.932Z,22.41
2019-05-19T18:48:39.742Z,22.34
2019-05-19T18:51:44.906Z,22.36
2019-05-19T18:54:50.597Z,22.32
2019-05-19T18:57:55.366Z,22.28
2019-05-19T19:01:00.294Z,22.15
2019-05-19T19:04:06.178Z,22.04
2019-05-19T19:07:10.963Z,22.02
2019-05-19T19:10:15.738Z,21.85
2019-05-19T19:13:21.725Z,21.82
2019-05-19T19:16:26.795Z,21.71
2019-05-19T19:19:31.775Z,21.61
2019-05-19T19:22:36.620Z,21.61
2019-05-19T19:25:41.785Z,21.55
2019-05-19T19:28:46.861Z,21.41
2019-05-19T19:31:51.661Z,21.38
2019-05-19T19:34:56.739Z,21.43
2019-05-19T19:38:02.095Z,21.42
2019-05-19T19:41:07.084Z,21.27
2019-05-19T19:44:12.020Z,21.21
2019-05-19T19:47:16.816Z,21.15
2019-05-19T19:50:21.741Z,21.13
2019-05-19T19:53:26.575Z,21.02
2019-05-19T19:56:31.492Z,20.95
2019-05-19T19:59:37.190Z,20.88
2019-05-19T20:02:41.981Z,20.78
2019-05-19T20:05:47.131Z,20.73
2019-05-19T20:08:52.157Z,20.59
2019-05-19T20:11:56.990Z,20.53
2019-05-19T20:15:01.830Z,20.36
2019-05-19T20:18:06.632Z,20.18
2019-05-19T20:21:11.560Z,20.03
2019-05-19T20:24:16.530Z,19.98
2019-05-19T20:27:21.526Z,19.95
2019-05-19T20:30:34.992Z,19.94
2019-05-19T20:33:33.415Z,19.98
2019-05-19T20:36:38.490Z,19.93
2019-05-19T20:39:43.385Z,19.83
2019-05-19T20:42:48.188Z,19.71
2019-05-19T20:45:53.045Z,19.67
2019-05-19T20:48:57.891Z,19.66
2019-05-19T20:52:02.676Z,19.62
2019-05-19T20:55:08.626Z,19.56
2019-05-19T20:58:13.339Z,19.50
2019-05-19T21:01:18.367Z,19.46
2019-05-19T21:04:23.082Z,19.40
2019-05-19T21:07:28.159Z,19.38
2019-05-19T21:10:33.140Z,19.23
2019-05-19T21:13:37.984Z,18.99
2019-05-19T21:16:42.749Z,18.91
2019-05-19T21:19:48.709Z,18.66
2019-05-19T21:22:53.469Z,18.35
2019-05-19T21:25:58.499Z,18.31
2019-05-19T21:29:03.326Z,18.15
2019-05-19T21:32:08.040Z,18.15
2019-05-19T21:35:13.123Z,18.01
2019-05-19T21:38:18.156Z,17.88
2019-05-19T21:41:23.158Z,17.80
2019-05-19T21:44:27.951Z,17.77
2019-05-19T21:47:32.750Z,17.79
2019-05-19T21:50:37.872Z,17.81
2019-05-19T21:53:42.740Z,17.81
2019-05-19T21:56:47.846Z,17.70
2019-05-19T21:59:52.907Z,17.71
2019-05-19T22:02:57.800Z,17.70
2019-05-19T22:06:02.584Z,17.68
2019-05-19T22:09:07.478Z,17.58
2019-05-19T22:12:12.548Z,17.50
2019-05-19T22:15:17.361Z,17.39
2019-05-19T22:18:22.206Z,17.30
2019-05-19T22:21:30.157Z,17.34
2019-05-19T22:24:34.964Z,17.33
2019-05-19T22:27:39.676Z,17.32
2019-05-19T22:30:44.530Z,17.26
2019-05-19T22:33:49.616Z,17.34
2019-05-19T22:36:54.698Z,17.28
2019-05-19T22:39:59.717Z,17.38
2019-05-19T22:43:04.550Z,17.56
2019-05-19T22:46:09.686Z,17.58
2019-05-19T22:49:15.045Z,17.61
2019-05-19T22:52:20.167Z,17.74
2019-05-19T22:55:24.947Z,17.76
2019-05-19T22:58:29.678Z,17.68
2019-05-19T23:01:34.726Z,17.66
2019-05-19T23:04:39.457Z,17.70
2019-05-19T23:07:44.236Z,17.78
2019-05-19T23:10:48.975Z,17.70
2019-05-19T23:13:53.967Z,17.72
2019-05-19T23:16:58.695Z,17.69
2019-05-19T23:20:03.813Z,17.78
2019-05-19T23:23:08.679Z,17.66
2019-05-19T23:26:13.442Z,17.66
2019-05-19T23:29:18.429Z,17.58
2019-05-19T23:32:23.535Z,17.42
2019-05-19T23:35:28.546Z,17.32
2019-05-19T23:38:34.342Z,17.26
2019-05-19T23:41:39.084Z,17.22
2019-05-19T23:44:46.796Z,17.12
2019-05-19T23:47:51.539Z,17.16
2019-05-19T23:50:56.271Z,17.10
2019-05-19T23:54:02.581Z,17.05
2019-05-19T23:57:07.316Z,17.03
